Time;durP1;ratioP1;P1;durP2;ratioP2;P2;SDS_P1;SDS_P2;PMS_P1;PMS_P2;Temp;Humidity;BMP_temperature;BMP_pressure;BME280_temperature;BME280_humidity;BME280_pressure;Samples;Min_cycle;Max_cycle;Signal;HPM_P1;HPM_P2
2021/12/11 00:02:21;;;;;;;4.15;3.10;;;;;;;;;;4994390;28;20206;-81
2021/12/11 00:04:56;;;;;;;4.63;2.75;;;;;;;;;;4995079;28;20191;-81
2021/12/11 00:07:26;;;;;;;7.25;3.78;;;;;;;;;;4994602;28;20192;-81
2021/12/11 00:09:58;;;;;;;3.58;3.10;;;;;;;;;;4994679;28;20195;-81
2021/12/11 00:12:31;;;;;;;2.72;2.42;;;;;;;;;;4994950;28;20190;-81
2021/12/11 00:15:08;;;;;;;3.22;2.92;;;;;;;;;;4994850;28;20232;-81
2021/12/11 00:17:36;;;;;;;3.17;2.88;;;;;;;;;;4994919;28;20198;-81
2021/12/11 00:20:10;;;;;;;2.95;2.33;;;;;;;;;;4983639;28;20204;-82
2021/12/11 00:22:41;;;;;;;2.47;2.28;;;;;;;;;;4974863;28;20192;-81
2021/12/11 00:25:13;;;;;;;3.47;3.15;;;;;;;;;;4975203;28;20224;-81
2021/12/11 00:27:44;;;;;;;3.45;2.38;;;;;;;;;;4975077;28;20185;-82
2021/12/11 00:30:23;;;;;;;3.10;2.90;;;;;;;;;;4986997;28;20188;-81
2021/12/11 00:32:59;;;;;;;4.60;3.00;;;;;;;;;;4994205;28;20639;-81
2021/12/11 00:35:27;;;;;;;6.72;2.50;;;;;;;;;;4993952;28;20231;-82
2021/12/11 00:38:03;;;;;;;5.15;3.38;;;;;;;;;;4994624;28;20199;-82
2021/12/11 00:40:32;;;;;;;3.60;2.97;;;;;;;;;;4982651;28;20267;-82
2021/12/11 00:43:04;;;;;;;3.30;2.40;;;;;;;;;;4974467;28;20216;-82
2021/12/11 00:45:36;;;;;;;3.67;2.45;;;;;;;;;;4974620;28;20259;-82
2021/12/11 00:48:08;;;;;;;2.53;2.30;;;;;;;;;;4974459;28;20188;-82
2021/12/11 00:50:40;;;;;;;5.35;2.50;;;;;;;;;;4974812;28;20188;-81
2021/12/11 00:53:13;;;;;;;3.13;2.38;;;;;;;;;;4974208;28;20195;-81
2021/12/11 00:55:45;;;;;;;4.22;2.50;;;;;;;;;;4974483;28;20587;-81
2021/12/11 00:58:16;;;;;;;3.25;2.60;;;;;;;;;;4974639;28;20189;-81
2021/12/11 01:00:50;;;;;;;5.32;2.80;;;;;;;;;;4974856;28;20651;-81
2021/12/11 01:03:25;;;;;;;2.38;2.15;;;;;;;;;;4974556;28;20682;-81
2021/12/11 01:05:56;;;;;;;3.58;2.33;;;;;;;;;;4973899;28;20610;-81
2021/12/11 01:08:31;;;;;;;3.08;2.78;;;;;;;;;;4974061;28;20200;-81
2021/12/11 01:11:10;;;;;;;2.88;2.63;;;;;;;;;;4977414;28;20640;-81
2021/12/11 01:13:43;;;;;;;4.20;2.38;;;;;;;;;;4974514;28;20570;-81
2021/12/11 01:16:14;;;;;;;3.95;2.38;;;;;;;;;;4974110;28;20259;-81
2021/12/11 01:18:48;;;;;;;6.03;2.83;;;;;;;;;;4974498;28;20710;-81
2021/12/11 01:21:32;;;;;;;3.70;3.30;;;;;;;;;;4974282;28;20220;-81
2021/12/11 01:24:14;;;;;;;2.83;2.55;;;;;;;;;;4973733;28;20222;-81
2021/12/11 01:26:51;;;;;;;3.67;2.38;;;;;;;;;;4974269;28;20232;-81
2021/12/11 01:29:21;;;;;;;3.67;2.97;;;;;;;;;;4977219;28;20192;-81
2021/12/11 01:31:52;;;;;;;2.72;2.50;;;;;;;;;;4993500;28;20192;-82
2021/12/11 01:34:20;;;;;;;6.50;2.90;;;;;;;;;;4993306;28;20207;-81
2021/12/11 01:36:48;;;;;;;4.47;3.15;;;;;;;;;;4993379;28;20230;-81
2021/12/11 01:39:21;;;;;;;3.35;2.42;;;;;;;;;;4991278;28;20685;-81
2021/12/11 01:41:51;;;;;;;2.85;2.30;;;;;;;;;;4974088;28;20203;-82
2021/12/11 01:44:26;;;;;;;2.65;2.25;;;;;;;;;;4993296;28;20207;-82
2021/12/11 01:47:02;;;;;;;3.10;2.10;;;;;;;;;;4993168;28;20237;-81
2021/12/11 01:49:31;;;;;;;4.90;2.50;;;;;;;;;;4993551;28;20196;-81
2021/12/11 01:52:04;;;;;;;3.97;2.47;;;;;;;;;;4993203;28;20188;-81
2021/12/11 01:54:37;;;;;;;3.33;2.30;;;;;;;;;;4994747;28;20203;-82
2021/12/11 01:57:12;;;;;;;3.10;2.80;;;;;;;;;;4997378;28;20202;-82
2021/12/11 01:59:44;;;;;;;2.97;2.78;;;;;;;;;;4992256;28;20189;-81
2021/12/11 02:02:16;;;;;;;3.00;2.47;;;;;;;;;;4977797;28;20185;-81
2021/12/11 02:04:53;;;;;;;4.00;2.47;;;;;;;;;;4977366;28;20204;-82
2021/12/11 02:07:27;;;;;;;3.30;2.95;;;;;;;;;;4977293;28;20184;-82
2021/12/11 02:09:57;;;;;;;4.82;3.13;;;;;;;;;;4977689;28;20189;-82
2021/12/11 02:12:35;;;;;;;3.53;2.85;;;;;;;;;;4977727;28;20275;-82
2021/12/11 02:15:11;;;;;;;5.65;3.40;;;;;;;;;;4977195;28;20962;-82
2021/12/11 02:17:46;;;;;;;3.15;2.90;;;;;;;;;;4977505;28;20239;-82
2021/12/11 02:20:20;;;;;;;2.60;2.40;;;;;;;;;;4977327;28;20191;-82
2021/12/11 02:22:52;;;;;;;3.17;2.72;;;;;;;;;;4977107;28;20283;-82
2021/12/11 02:25:24;;;;;;;3.97;3.15;;;;;;;;;;4977103;28;20238;-82
2021/12/11 02:27:57;;;;;;;3.72;3.10;;;;;;;;;;4977377;28;20192;-82
2021/12/11 02:30:29;;;;;;;3.35;2.85;;;;;;;;;;4977195;28;20189;-82
2021/12/11 02:33:07;;;;;;;5.13;3.30;;;;;;;;;;4977065;28;20456;-82
2021/12/11 02:35:40;;;;;;;4.43;3.78;;;;;;;;;;4977071;28;20310;-82
2021/12/11 02:38:15;;;;;;;4.43;4.03;;;;;;;;;;4977094;28;20690;-82
2021/12/11 02:40:48;;;;;;;4.25;3.55;;;;;;;;;;4977008;28;20184;-82
2021/12/11 02:43:22;;;;;;;3.90;3.03;;;;;;;;;;4977339;28;20191;-83
2021/12/11 02:46:00;;;;;;;4.05;3.50;;;;;;;;;;4993653;28;20227;-82
2021/12/11 02:48:33;;;;;;;3.45;3.08;;;;;;;;;;4996421;28;20566;-82
2021/12/11 02:51:09;;;;;;;5.10;4.15;;;;;;;;;;5037225;22;20697;-85
2021/12/11 02:53:44;;;;;;;4.03;3.55;;;;;;;;;;5002063;28;20243;-82
2021/12/11 02:56:16;;;;;;;3.92;3.35;;;;;;;;;;4997535;28;20191;-85
2021/12/11 02:58:50;;;;;;;3.90;3.28;;;;;;;;;;4998208;28;20196;-83
2021/12/11 03:01:24;;;;;;;4.57;3.15;;;;;;;;;;4978157;28;20261;-85
2021/12/11 03:04:00;;;;;;;4.25;3.47;;;;;;;;;;4978432;28;20212;-85
2021/12/11 03:06:36;;;;;;;3.42;3.00;;;;;;;;;;4976923;28;20313;-83
2021/12/11 03:09:09;;;;;;;5.45;3.30;;;;;;;;;;4978198;28;20759;-85
2021/12/11 03:11:36;;;;;;;5.35;3.08;;;;;;;;;;4978085;28;20211;-85
2021/12/11 03:14:14;;;;;;;5.25;3.30;;;;;;;;;;4975906;28;20291;-84
2021/12/11 03:16:43;;;;;;;4.03;3.15;;;;;;;;;;4958436;29;20276;-85
2021/12/11 03:19:17;;;;;;;3.58;2.97;;;;;;;;;;4958534;29;20228;-86
2021/12/11 03:21:45;;;;;;;3.53;3.22;;;;;;;;;;4957510;29;20197;-86
2021/12/11 03:24:14;;;;;;;3.40;3.10;;;;;;;;;;4961204;28;20196;-85
2021/12/11 03:26:44;;;;;;;3.72;2.85;;;;;;;;;;4978306;28;20193;-85
2021/12/11 03:29:12;;;;;;;2.70;2.50;;;;;;;;;;4978869;28;20236;-85
2021/12/11 03:31:40;;;;;;;3.15;2.10;;;;;;;;;;4977761;28;20663;-85
2021/12/11 03:34:12;;;;;;;5.20;3.40;;;;;;;;;;4978208;28;20192;-85
2021/12/11 03:36:39;;;;;;;6.47;3.13;;;;;;;;;;4978432;28;20185;-84
2021/12/11 03:39:12;;;;;;;3.70;2.65;;;;;;;;;;4978468;28;20204;-84
2021/12/11 03:41:42;;;;;;;3.00;2.70;;;;;;;;;;4968282;28;20208;-85
2021/12/11 03:44:12;;;;;;;5.32;3.35;;;;;;;;;;4978552;28;20211;-85
2021/12/11 03:46:40;;;;;;;3.28;2.70;;;;;;;;;;4980427;28;20593;-85
2021/12/11 03:49:12;;;;;;;3.45;3.17;;;;;;;;;;4980112;28;20555;-84
2021/12/11 03:51:43;;;;;;;3.60;3.20;;;;;;;;;;4979791;28;20208;-85
2021/12/11 03:54:14;;;;;;;3.83;3.53;;;;;;;;;;4980464;28;20192;-86
2021/12/11 03:56:44;;;;;;;4.85;3.53;;;;;;;;;;4980561;28;20204;-84
2021/12/11 03:59:13;;;;;;;3.20;2.58;;;;;;;;;;4980527;28;20235;-85
2021/12/11 04:01:44;;;;;;;4.88;3.35;;;;;;;;;;4980244;28;20184;-85
2021/12/11 04:04:16;;;;;;;4.20;2.88;;;;;;;;;;4980015;28;20181;-84
2021/12/11 04:06:44;;;;;;;3.83;2.15;;;;;;;;;;4979967;28;20212;-86
2021/12/11 04:09:14;;;;;;;2.30;2.10;;;;;;;;;;4979525;28;20217;-85
2021/12/11 04:11:44;;;;;;;2.22;2.03;;;;;;;;;;4980065;28;20207;-85
2021/12/11 04:14:17;;;;;;;2.42;2.22;;;;;;;;;;4979992;28;20536;-85
2021/12/11 04:16:46;;;;;;;3.53;2.65;;;;;;;;;;4979403;28;20191;-83
2021/12/11 04:19:14;;;;;;;3.95;2.55;;;;;;;;;;4982665;28;20224;-84
2021/12/11 04:21:43;;;;;;;2.70;2.50;;;;;;;;;;4994086;28;20218;-84
2021/12/11 04:24:15;;;;;;;2.72;2.53;;;;;;;;;;4992276;28;20200;-85
2021/12/11 04:26:45;;;;;;;2.65;2.45;;;;;;;;;;4986089;28;20224;-85
2021/12/11 04:29:13;;;;;;;4.93;2.95;;;;;;;;;;4987561;28;20225;-85
2021/12/11 04:31:43;;;;;;;4.28;3.85;;;;;;;;;;4990073;28;20562;-85
2021/12/11 04:34:14;;;;;;;4.53;4.03;;;;;;;;;;4986317;28;20218;-84
2021/12/11 04:36:45;;;;;;;5.00;4.30;;;;;;;;;;4983244;28;20638;-86
2021/12/11 04:39:15;;;;;;;6.35;4.43;;;;;;;;;;4981194;28;20234;-85
2021/12/11 04:41:54;;;;;;;7.10;4.57;;;;;;;;;;4988380;28;20176;-85
2021/12/11 04:44:28;;;;;;;3.83;3.38;;;;;;;;;;4994099;28;20207;-83
2021/12/11 04:46:56;;;;;;;2.50;2.30;;;;;;;;;;4995987;28;20220;-84
2021/12/11 04:49:31;;;;;;;4.55;4.03;;;;;;;;;;4992499;28;20260;-84
2021/12/11 04:52:05;;;;;;;4.15;3.30;;;;;;;;;;4986499;28;20208;-83
2021/12/11 04:54:47;;;;;;;3.10;2.80;;;;;;;;;;4976757;29;20205;-84
2021/12/11 05:00:30;;;;;;;3.88;3.58;;;;;;;;;;4922797;29;20233;-83
2021/12/11 05:03:28;;;;;;;3.20;2.90;;;;;;;;;;4977835;28;20209;-84
2021/12/11 05:06:15;;;;;;;3.50;3.20;;;;;;;;;;4975831;28;20225;-83
2021/12/11 05:11:37;;;;;;;4.75;4.15;;;;;;;;;;4974514;28;20253;-84
2021/12/11 05:14:10;;;;;;;4.65;4.03;;;;;;;;;;4969204;28;20242;-86
2021/12/11 05:16:39;;;;;;;4.43;4.00;;;;;;;;;;4957692;29;20205;-85
2021/12/11 05:19:07;;;;;;;5.05;4.53;;;;;;;;;;4966638;28;20192;-85
2021/12/11 05:21:35;;;;;;;4.30;3.90;;;;;;;;;;4977865;28;20196;-85
2021/12/11 05:24:06;;;;;;;6.10;4.15;;;;;;;;;;4978213;28;20192;-85
2021/12/11 05:26:35;;;;;;;4.38;3.97;;;;;;;;;;4977712;28;20230;-85
2021/12/11 05:29:03;;;;;;;5.75;4.70;;;;;;;;;;4975591;28;20239;-84
2021/12/11 05:31:35;;;;;;;3.92;3.53;;;;;;;;;;4978070;28;20192;-84
2021/12/11 05:34:03;;;;;;;4.82;4.28;;;;;;;;;;4977355;28;20188;-84
2021/12/11 05:36:32;;;;;;;3.50;3.13;;;;;;;;;;4978801;28;20689;-84
2021/12/11 05:39:00;;;;;;;4.90;4.45;;;;;;;;;;4962105;28;20193;-83
2021/12/11 05:41:28;;;;;;;5.07;4.50;;;;;;;;;;4957630;29;20571;-84
2021/12/11 05:43:56;;;;;;;6.03;4.72;;;;;;;;;;4957807;29;20264;-84
2021/12/11 05:46:24;;;;;;;5.32;4.25;;;;;;;;;;4958251;29;20216;-84
2021/12/11 05:48:53;;;;;;;6.90;4.97;;;;;;;;;;4957636;29;20200;-83
2021/12/11 05:51:23;;;;;;;4.57;3.33;;;;;;;;;;4958199;28;20197;-85
2021/12/11 05:53:55;;;;;;;4.88;4.47;;;;;;;;;;4962972;28;20196;-83
2021/12/11 05:56:22;;;;;;;4.88;4.20;;;;;;;;;;4980241;28;20188;-84
2021/12/11 05:58:57;;;;;;;3.92;3.58;;;;;;;;;;4982590;28;20200;-85
2021/12/11 06:01:31;;;;;;;2.97;2.67;;;;;;;;;;4993219;28;20235;-83
2021/12/11 06:04:03;;;;;;;3.58;3.13;;;;;;;;;;4982602;28;20185;-82
2021/12/11 06:06:31;;;;;;;4.88;3.65;;;;;;;;;;4972670;28;20244;-83
2021/12/11 06:08:58;;;;;;;3.63;3.30;;;;;;;;;;4986519;28;20276;-83
2021/12/11 06:11:26;;;;;;;3.10;2.90;;;;;;;;;;4977189;28;20212;-83
2021/12/11 06:13:53;;;;;;;3.25;2.95;;;;;;;;;;4970346;29;20189;-85
2021/12/11 06:16:21;;;;;;;3.83;3.53;;;;;;;;;;4960429;28;20216;-86
2021/12/11 06:18:49;;;;;;;3.28;3.08;;;;;;;;;;4959396;29;20193;-86
2021/12/11 06:21:19;;;;;;;2.58;2.38;;;;;;;;;;4959347;29;20707;-85
2021/12/11 06:23:49;;;;;;;4.32;3.92;;;;;;;;;;4960540;28;20202;-85
2021/12/11 06:26:17;;;;;;;3.45;3.03;;;;;;;;;;4977267;28;20212;-86
2021/12/11 06:28:45;;;;;;;2.58;2.38;;;;;;;;;;4976280;28;20200;-84
2021/12/11 06:31:18;;;;;;;2.47;2.28;;;;;;;;;;4976213;28;20720;-84
2021/12/11 06:33:49;;;;;;;3.22;2.65;;;;;;;;;;4981179;28;20726;-84
2021/12/11 06:36:23;;;;;;;4.47;3.92;;;;;;;;;;4981205;28;20197;-84
2021/12/11 06:38:54;;;;;;;3.40;3.10;;;;;;;;;;4979991;28;20215;-84
2021/12/11 06:41:28;;;;;;;3.47;2.90;;;;;;;;;;4982719;28;20198;-84
2021/12/11 06:43:57;;;;;;;3.30;2.88;;;;;;;;;;4982718;28;20220;-83
2021/12/11 06:46:25;;;;;;;3.50;3.20;;;;;;;;;;4982793;28;20188;-83
2021/12/11 06:48:53;;;;;;;3.10;2.83;;;;;;;;;;4983687;28;20207;-84
2021/12/11 06:51:22;;;;;;;3.15;2.53;;;;;;;;;;4943791;29;20699;-83
2021/12/11 06:53:55;;;;;;;3.28;2.97;;;;;;;;;;4943806;29;20202;-84
2021/12/11 06:56:24;;;;;;;3.25;3.05;;;;;;;;;;4944826;29;20204;-83
2021/12/11 06:58:53;;;;;;;3.45;3.15;;;;;;;;;;4943202;29;20190;-84
2021/12/11 07:01:23;;;;;;;3.00;2.80;;;;;;;;;;4940048;29;20198;-84
2021/12/11 07:03:53;;;;;;;4.07;3.67;;;;;;;;;;4943494;29;20664;-84
2021/12/11 07:06:22;;;;;;;4.60;3.90;;;;;;;;;;4943986;29;20190;-84
2021/12/11 07:08:51;;;;;;;5.32;4.82;;;;;;;;;;4944111;29;20204;-84
2021/12/11 07:11:19;;;;;;;6.00;4.47;;;;;;;;;;4933178;29;20209;-84
2021/12/11 07:13:48;;;;;;;5.28;4.00;;;;;;;;;;4925411;29;20195;-83
2021/12/11 07:16:17;;;;;;;7.88;4.90;;;;;;;;;;4925782;29;20187;-84
2021/12/11 07:18:45;;;;;;;4.72;4.30;;;;;;;;;;4939075;29;20272;-83
2021/12/11 07:21:14;;;;;;;5.78;4.30;;;;;;;;;;4942883;29;20734;-84
2021/12/11 07:23:49;;;;;;;6.05;4.68;;;;;;;;;;4942489;29;20212;-83
2021/12/11 07:26:24;;;;;;;5.88;5.28;;;;;;;;;;4941502;29;20205;-83
2021/12/11 07:28:56;;;;;;;5.70;4.90;;;;;;;;;;4942556;29;20221;-84
2021/12/11 07:31:27;;;;;;;4.10;3.80;;;;;;;;;;4924364;29;20642;-82
2021/12/11 07:33:55;;;;;;;4.32;3.80;;;;;;;;;;4920578;29;20201;-86
2021/12/11 07:36:23;;;;;;;6.07;5.38;;;;;;;;;;4922425;29;20189;-83
2021/12/11 07:38:54;;;;;;;6.03;5.13;;;;;;;;;;4924113;29;20199;-83
2021/12/11 07:41:22;;;;;;;6.82;5.65;;;;;;;;;;4926887;29;20198;-83
2021/12/11 07:43:50;;;;;;;4.95;3.97;;;;;;;;;;4943244;29;20207;-82
2021/12/11 07:46:24;;;;;;;4.53;4.13;;;;;;;;;;4943123;29;20213;-83
2021/12/11 07:48:52;;;;;;;5.57;5.07;;;;;;;;;;4942888;29;20230;-83
2021/12/11 07:51:23;;;;;;;5.25;4.75;;;;;;;;;;4938068;29;20187;-82
2021/12/11 07:53:51;;;;;;;4.75;4.30;;;;;;;;;;4925693;29;20190;-84
2021/12/11 07:56:21;;;;;;;3.83;3.47;;;;;;;;;;4925348;29;20199;-83
2021/12/11 07:58:55;;;;;;;3.78;3.42;;;;;;;;;;4927696;29;20692;-84
2021/12/11 08:01:23;;;;;;;3.85;3.47;;;;;;;;;;4944677;29;20225;-83
2021/12/11 08:03:52;;;;;;;3.00;2.80;;;;;;;;;;4943265;29;20669;-84
2021/12/11 08:06:19;;;;;;;2.72;2.45;;;;;;;;;;4941036;29;20278;-84
2021/12/11 08:08:47;;;;;;;3.53;3.30;;;;;;;;;;4947782;29;20299;-83
2021/12/11 08:11:19;;;;;;;3.47;3.20;;;;;;;;;;4936568;29;20226;-82
2021/12/11 08:13:51;;;;;;;3.83;3.53;;;;;;;;;;4922144;29;20191;-83
2021/12/11 08:16:26;;;;;;;3.33;3.03;;;;;;;;;;4917808;29;20191;-83
2021/12/11 08:18:54;;;;;;;3.80;3.25;;;;;;;;;;4919168;29;20201;-83
2021/12/11 08:21:23;;;;;;;2.95;2.75;;;;;;;;;;4934801;29;20194;-83
2021/12/11 08:23:54;;;;;;;4.75;4.20;;;;;;;;;;4932649;29;20198;-82
2021/12/11 08:26:25;;;;;;;3.55;3.25;;;;;;;;;;4938075;29;20201;-83
2021/12/11 08:28:55;;;;;;;2.85;2.65;;;;;;;;;;4937089;29;20210;-82
2021/12/11 08:31:23;;;;;;;2.75;2.55;;;;;;;;;;4936149;29;20202;-81
2021/12/11 08:33:53;;;;;;;3.72;3.42;;;;;;;;;;4937851;29;20213;-83
2021/12/11 08:36:21;;;;;;;4.75;3.63;;;;;;;;;;4937817;29;20201;-83
2021/12/11 08:38:49;;;;;;;6.00;3.45;;;;;;;;;;4927112;29;20203;-83
2021/12/11 08:41:22;;;;;;;5.82;4.25;;;;;;;;;;4918035;29;20217;-84
2021/12/11 08:43:56;;;;;;;4.75;4.20;;;;;;;;;;4918670;29;20195;-83
2021/12/11 08:46:28;;;;;;;4.15;3.85;;;;;;;;;;4918496;29;20602;-83
2021/12/11 08:48:59;;;;;;;6.90;5.47;;;;;;;;;;4918995;28;20301;-84
2021/12/11 08:51:34;;;;;;;4.32;3.92;;;;;;;;;;4957791;28;20667;-82
2021/12/11 08:54:04;;;;;;;5.78;4.93;;;;;;;;;;4974699;28;20635;-83
2021/12/11 08:56:31;;;;;;;5.57;4.95;;;;;;;;;;4975542;28;20197;-83
2021/12/11 08:58:59;;;;;;;5.88;5.35;;;;;;;;;;4957090;28;20193;-84
2021/12/11 09:01:37;;;;;;;4.75;4.22;;;;;;;;;;4956597;29;20568;-83
2021/12/11 09:04:10;;;;;;;7.45;6.57;;;;;;;;;;4956115;28;20189;-82
2021/12/11 09:06:42;;;;;;;7.28;6.38;;;;;;;;;;4969341;28;20200;-84
2021/12/11 09:09:14;;;;;;;8.18;7.10;;;;;;;;;;4970120;28;20201;-82
2021/12/11 09:11:45;;;;;;;7.60;6.70;;;;;;;;;;4971168;28;20200;-84
2021/12/11 09:14:17;;;;;;;6.53;5.93;;;;;;;;;;4974901;28;20200;-84
2021/12/11 09:16:53;;;;;;;6.40;5.80;;;;;;;;;;4970056;28;20196;-84
2021/12/11 09:19:26;;;;;;;5.32;4.82;;;;;;;;;;4955152;29;20236;-83
2021/12/11 09:21:59;;;;;;;7.53;6.75;;;;;;;;;;4955016;29;20185;-81
2021/12/11 09:24:31;;;;;;;6.25;5.65;;;;;;;;;;4955767;28;20659;-83
2021/12/11 09:27:04;;;;;;;5.13;4.63;;;;;;;;;;4954780;29;20283;-83
2021/12/11 09:29:36;;;;;;;6.03;5.43;;;;;;;;;;4955178;29;20629;-82
2021/12/11 09:32:15;;;;;;;6.45;5.85;;;;;;;;;;4956134;29;20571;-84
2021/12/11 09:34:47;;;;;;;6.18;5.57;;;;;;;;;;4956540;28;20204;-83
2021/12/11 09:37:16;;;;;;;6.82;6.05;;;;;;;;;;4955149;28;20192;-83
2021/12/11 09:39:50;;;;;;;8.32;6.05;;;;;;;;;;4954349;29;20221;-84
2021/12/11 09:42:19;;;;;;;5.72;4.93;;;;;;;;;;4955110;29;20204;-84
2021/12/11 09:44:52;;;;;;;4.60;4.18;;;;;;;;;;4967698;28;20193;-83
2021/12/11 09:47:28;;;;;;;4.88;4.22;;;;;;;;;;4964029;28;20189;-84
2021/12/11 09:50:02;;;;;;;6.03;5.43;;;;;;;;;;5026123;22;20230;-80
2021/12/11 09:52:32;;;;;;;6.70;6.10;;;;;;;;;;5010788;28;20198;-81
2021/12/11 09:55:05;;;;;;;6.05;5.55;;;;;;;;;;5012756;28;20202;-81
2021/12/11 09:57:37;;;;;;;14.75;8.82;;;;;;;;;;5012589;28;20566;-81
2021/12/11 10:00:11;;;;;;;9.52;8.63;;;;;;;;;;5013154;28;20233;-81
2021/12/11 10:02:39;;;;;;;13.88;9.93;;;;;;;;;;5013013;28;20205;-82
2021/12/11 10:05:28;;;;;;;10.35;8.68;;;;;;;;;;5013088;28;20206;-81
2021/12/11 10:08:25;;;;;;;6.88;6.25;;;;;;;;;;5012501;28;20207;-81
2021/12/11 10:10:49;;;;;;;8.90;7.50;;;;;;;;;;5012327;28;20274;-81
2021/12/11 10:13:17;;;;;;;7.18;5.88;;;;;;;;;;5012796;28;20214;-81
2021/12/11 10:15:46;;;;;;;5.13;4.53;;;;;;;;;;5014698;28;20207;-81
2021/12/11 10:18:18;;;;;;;6.63;5.35;;;;;;;;;;5016614;28;20739;-81
2021/12/11 10:20:50;;;;;;;5.60;5.07;;;;;;;;;;5016428;28;20203;-82
2021/12/11 10:23:26;;;;;;;6.03;5.53;;;;;;;;;;5016364;28;20582;-81
2021/12/11 10:25:54;;;;;;;10.40;8.32;;;;;;;;;;5032947;28;20210;-82
2021/12/11 10:28:27;;;;;;;6.32;5.70;;;;;;;;;;5036478;28;20722;-82
2021/12/11 10:31:03;;;;;;;7.10;5.95;;;;;;;;;;5036448;28;20256;-82
2021/12/11 10:33:33;;;;;;;9.23;8.32;;;;;;;;;;5036325;28;20201;-81
2021/12/11 10:36:07;;;;;;;6.43;5.82;;;;;;;;;;5036080;28;20213;-82
2021/12/11 10:38:35;;;;;;;6.13;4.53;;;;;;;;;;5035709;28;20604;-82
2021/12/11 10:41:05;;;;;;;9.02;6.32;;;;;;;;;;5035518;28;20209;-82
2021/12/11 10:43:39;;;;;;;8.60;7.80;;;;;;;;;;5035516;28;20207;-82
2021/12/11 10:46:10;;;;;;;7.82;6.05;;;;;;;;;;5035470;28;20198;-82
2021/12/11 10:48:38;;;;;;;5.57;5.00;;;;;;;;;;5035368;28;20711;-82
2021/12/11 10:51:10;;;;;;;12.70;8.30;;;;;;;;;;5035706;28;20222;-82
2021/12/11 10:53:42;;;;;;;10.48;7.90;;;;;;;;;;5035504;28;20209;-82
2021/12/11 10:56:12;;;;;;;10.57;8.98;;;;;;;;;;5035955;28;20237;-82
2021/12/11 10:58:44;;;;;;;9.25;7.05;;;;;;;;;;5035597;28;20223;-82
2021/12/11 11:01:20;;;;;;;7.28;6.60;;;;;;;;;;5035579;28;20194;-82
2021/12/11 11:03:54;;;;;;;6.72;6.03;;;;;;;;;;5035456;28;20202;-82
2021/12/11 11:06:21;;;;;;;6.07;5.53;;;;;;;;;;5035994;28;20202;-81
2021/12/11 11:08:50;;;;;;;6.55;5.93;;;;;;;;;;5035414;28;20234;-81
2021/12/11 11:11:24;;;;;;;7.57;6.03;;;;;;;;;;5034108;28;20205;-81
2021/12/11 11:13:52;;;;;;;7.57;6.88;;;;;;;;;;5008814;28;20657;-83
2021/12/11 11:16:22;;;;;;;7.88;6.15;;;;;;;;;;5019760;28;20195;-83
2021/12/11 11:18:50;;;;;;;9.35;8.20;;;;;;;;;;5015410;28;20697;-83
2021/12/11 11:21:23;;;;;;;8.00;7.20;;;;;;;;;;5014836;28;20199;-81
2021/12/11 11:23:51;;;;;;;8.65;7.40;;;;;;;;;;5015561;28;20206;-80
2021/12/11 11:26:24;;;;;;;9.10;8.00;;;;;;;;;;5020925;28;20199;-82
2021/12/11 11:28:52;;;;;;;9.60;8.68;;;;;;;;;;5014947;28;20223;-82
2021/12/11 11:31:24;;;;;;;8.63;7.90;;;;;;;;;;5014853;28;20189;-82
2021/12/11 11:33:53;;;;;;;8.70;7.78;;;;;;;;;;5015089;28;20191;-83
2021/12/11 11:36:26;;;;;;;12.90;8.70;;;;;;;;;;5020950;28;20195;-82
2021/12/11 11:38:58;;;;;;;8.73;7.93;;;;;;;;;;5035152;28;20222;-81
2021/12/11 11:41:37;;;;;;;7.80;7.03;;;;;;;;;;5034615;28;20183;-82
2021/12/11 11:44:06;;;;;;;6.47;5.85;;;;;;;;;;5028657;28;20187;-82
2021/12/11 11:46:37;;;;;;;6.78;6.10;;;;;;;;;;5015228;28;20191;-82
2021/12/11 11:49:07;;;;;;;5.97;5.47;;;;;;;;;;5014187;28;20243;-82
2021/12/11 11:51:41;;;;;;;7.88;6.90;;;;;;;;;;5011652;28;20191;-82
2021/12/11 11:54:11;;;;;;;7.88;7.18;;;;;;;;;;5014369;28;20652;-83
2021/12/11 11:56:43;;;;;;;9.00;8.15;;;;;;;;;;5015175;28;20203;-82
2021/12/11 11:59:12;;;;;;;9.32;8.18;;;;;;;;;;5014534;28;20219;-82
2021/12/11 12:01:44;;;;;;;9.25;8.20;;;;;;;;;;5014914;28;20210;-82
2021/12/11 12:04:15;;;;;;;8.80;7.45;;;;;;;;;;5014988;28;20203;-82
2021/12/11 12:06:47;;;;;;;6.70;6.10;;;;;;;;;;5014899;28;20622;-82
2021/12/11 12:09:16;;;;;;;9.20;7.30;;;;;;;;;;5014952;28;20255;-83
2021/12/11 12:11:44;;;;;;;7.07;6.38;;;;;;;;;;5014395;28;20206;-82
2021/12/11 12:14:15;;;;;;;8.93;7.82;;;;;;;;;;5015233;28;20191;-83
2021/12/11 12:16:47;;;;;;;10.00;9.07;;;;;;;;;;5015549;28;20655;-82
2021/12/11 12:19:15;;;;;;;9.85;8.85;;;;;;;;;;5015005;28;20215;-82
2021/12/11 12:21:46;;;;;;;11.13;9.93;;;;;;;;;;5013835;28;20205;-82
2021/12/11 12:24:13;;;;;;;12.35;11.05;;;;;;;;;;5013861;28;20192;-82
2021/12/11 12:26:42;;;;;;;9.70;8.45;;;;;;;;;;5013944;28;20199;-82
2021/12/11 12:29:14;;;;;;;8.88;6.47;;;;;;;;;;5013842;28;20231;-82
2021/12/11 12:31:51;;;;;;;6.35;5.75;;;;;;;;;;5014086;28;20214;-82
2021/12/11 12:34:21;;;;;;;6.75;6.15;;;;;;;;;;5013884;28;20659;-81
2021/12/11 12:36:50;;;;;;;8.57;7.75;;;;;;;;;;5013305;28;20203;-81
2021/12/11 12:39:22;;;;;;;8.07;7.25;;;;;;;;;;5013708;28;20608;-82
2021/12/11 12:41:58;;;;;;;7.88;7.18;;;;;;;;;;5013873;28;20187;-82
2021/12/11 12:44:27;;;;;;;12.48;9.88;;;;;;;;;;5014010;28;20195;-81
2021/12/11 12:47:01;;;;;;;11.02;8.75;;;;;;;;;;5013791;28;20210;-81
2021/12/11 12:49:32;;;;;;;8.30;7.47;;;;;;;;;;5013284;28;20233;-81
2021/12/11 12:52:05;;;;;;;5.80;5.20;;;;;;;;;;5013217;28;20215;-82
2021/12/11 12:54:33;;;;;;;8.48;7.75;;;;;;;;;;5013627;28;20541;-81
2021/12/11 12:57:11;;;;;;;8.60;7.55;;;;;;;;;;5013746;28;20188;-81
2021/12/11 12:59:42;;;;;;;7.80;7.05;;;;;;;;;;5013984;28;20258;-82
2021/12/11 13:02:17;;;;;;;8.40;7.60;;;;;;;;;;5013902;28;20190;-82
2021/12/11 13:04:52;;;;;;;8.98;7.13;;;;;;;;;;5014158;28;20669;-82
2021/12/11 13:07:20;;;;;;;8.13;7.32;;;;;;;;;;5014045;28;20210;-82
2021/12/11 13:09:52;;;;;;;8.15;6.97;;;;;;;;;;5013834;28;20223;-82
2021/12/11 13:12:23;;;;;;;9.13;8.18;;;;;;;;;;4993919;28;20195;-82
2021/12/11 13:14:53;;;;;;;10.57;9.43;;;;;;;;;;5005188;28;20676;-82
2021/12/11 13:17:28;;;;;;;11.05;9.00;;;;;;;;;;5013512;28;20278;-82
2021/12/11 13:20:04;;;;;;;12.32;8.95;;;;;;;;;;4993810;28;20219;-81
2021/12/11 13:22:36;;;;;;;7.63;6.88;;;;;;;;;;4996205;28;20199;-81
2021/12/11 13:25:14;;;;;;;8.65;7.75;;;;;;;;;;5004659;28;20707;-81
2021/12/11 13:27:43;;;;;;;9.88;8.88;;;;;;;;;;5013124;28;20286;-82
2021/12/11 13:30:19;;;;;;;8.57;7.65;;;;;;;;;;5013679;28;20219;-82
2021/12/11 13:32:49;;;;;;;5.93;5.43;;;;;;;;;;5015696;28;20210;-82
2021/12/11 13:35:22;;;;;;;8.65;6.38;;;;;;;;;;5014284;28;20233;-82
2021/12/11 13:37:50;;;;;;;6.13;5.57;;;;;;;;;;5025503;28;20213;-81
2021/12/11 13:40:20;;;;;;;7.68;5.30;;;;;;;;;;5035221;28;20226;-82
2021/12/11 13:42:49;;;;;;;8.43;4.47;;;;;;;;;;5035030;28;20214;-82
2021/12/11 13:45:23;;;;;;;5.20;4.70;;;;;;;;;;5034897;28;20186;-83
2021/12/11 13:47:54;;;;;;;6.05;4.97;;;;;;;;;;5034757;28;20269;-82
2021/12/11 13:50:28;;;;;;;6.55;5.70;;;;;;;;;;5036100;28;20226;-83
2021/12/11 13:52:56;;;;;;;5.15;4.68;;;;;;;;;;5039008;28;20190;-82
2021/12/11 13:55:25;;;;;;;5.82;5.30;;;;;;;;;;5039603;28;20187;-83
2021/12/11 13:57:53;;;;;;;6.45;5.85;;;;;;;;;;5014720;28;20194;-82
2021/12/11 14:00:24;;;;;;;5.50;5.03;;;;;;;;;;5012284;28;20187;-82
2021/12/11 14:02:53;;;;;;;5.88;5.15;;;;;;;;;;5018909;28;20191;-83
2021/12/11 14:05:22;;;;;;;7.22;6.63;;;;;;;;;;5018971;28;20588;-83
2021/12/11 14:07:49;;;;;;;7.13;6.43;;;;;;;;;;5019071;28;20179;-83
2021/12/11 14:10:27;;;;;;;6.20;5.60;;;;;;;;;;5029555;28;20242;-82
2021/12/11 14:12:58;;;;;;;5.10;4.70;;;;;;;;;;5038054;28;20644;-82
2021/12/11 14:15:26;;;;;;;6.55;5.82;;;;;;;;;;5038545;28;20258;-82
2021/12/11 14:17:55;;;;;;;8.05;6.72;;;;;;;;;;5038514;28;20210;-82
2021/12/11 14:20:28;;;;;;;7.85;6.35;;;;;;;;;;5025222;28;20191;-81
2021/12/11 14:22:56;;;;;;;7.63;6.53;;;;;;;;;;5018921;28;20554;-83
2021/12/11 14:25:31;;;;;;;7.40;6.68;;;;;;;;;;5018339;28;20184;-83
2021/12/11 14:28:01;;;;;;;7.82;7.13;;;;;;;;;;5018173;28;20207;-82
2021/12/11 14:30:28;;;;;;;8.05;7.25;;;;;;;;;;5018368;28;20187;-83
2021/12/11 14:32:59;;;;;;;8.40;7.60;;;;;;;;;;5018043;28;20210;-83
2021/12/11 14:35:30;;;;;;;8.38;6.88;;;;;;;;;;5018714;28;20630;-83
2021/12/11 14:37:59;;;;;;;6.57;5.85;;;;;;;;;;5017708;28;20555;-83
2021/12/11 14:40:32;;;;;;;9.20;8.32;;;;;;;;;;5017950;28;20187;-84
2021/12/11 14:43:02;;;;;;;6.75;6.07;;;;;;;;;;5018447;28;20214;-84
2021/12/11 14:45:33;;;;;;;8.95;7.38;;;;;;;;;;5018688;28;20195;-83
2021/12/11 14:48:02;;;;;;;9.02;7.63;;;;;;;;;;5017784;28;20641;-82
2021/12/11 14:50:35;;;;;;;8.95;7.32;;;;;;;;;;5018118;28;20187;-82
2021/12/11 14:53:04;;;;;;;7.50;6.22;;;;;;;;;;5015509;28;20579;-83
2021/12/11 14:55:41;;;;;;;7.60;6.88;;;;;;;;;;5017799;28;20219;-83
2021/12/11 14:58:09;;;;;;;8.52;7.65;;;;;;;;;;5018664;28;20187;-83
2021/12/11 15:00:40;;;;;;;7.82;6.10;;;;;;;;;;5017798;28;20187;-83
2021/12/11 15:03:09;;;;;;;6.22;5.60;;;;;;;;;;5013260;28;20199;-84
2021/12/11 15:05:42;;;;;;;6.60;5.47;;;;;;;;;;5017949;28;20207;-83
2021/12/11 15:08:10;;;;;;;6.88;5.28;;;;;;;;;;5018105;28;20187;-83
2021/12/11 15:10:38;;;;;;;7.65;6.47;;;;;;;;;;5017903;28;20195;-82
2021/12/11 15:13:06;;;;;;;5.88;5.28;;;;;;;;;;5012784;28;20218;-82
2021/12/11 15:15:34;;;;;;;5.47;4.55;;;;;;;;;;5007389;28;20192;-83